sensor_id;sensor_type;location;lat;lon;timestamp;temperature;humidity
10812;DHT22;5458;51.496;7.334;2023-01-10T00:02:01;8.10;99.90
10812;DHT22;5458;51.496;7.334;2023-01-10T00:04:27;8.20;99.90
10812;DHT22;5458;51.496;7.334;2023-01-10T00:06:54;8.20;99.90
10812;DHT22;5458;51.496;7.334;2023-01-10T00:09:20;8.20;99.90
10812;DHT22;5458;51.496;7.334;2023-01-10T00:11:45;8.20;99.90
10812;DHT22;5458;51.496;7.334;2023-01-10T00:14:30;8.20;99.90
10812;DHT22;5458;51.496;7.334;2023-01-10T00:16:57;8.30;99.90
10812;DHT22;5458;51.496;7.334;2023-01-10T00:19:23;8.20;99.90
10812;DHT22;5458;51.496;7.334;2023-01-10T00:21:49;8.20;99.90
10812;DHT22;5458;51.496;7.334;2023-01-10T00:24:14;8.20;99.90
10812;DHT22;5458;51.496;7.334;2023-01-10T00:26:50;8.20;99.90
10812;DHT22;5458;51.496;7.334;2023-01-10T00:29:19;8.20;99.90
10812;DHT22;5458;51.496;7.334;2023-01-10T00:31:46;8.20;99.90
10812;DHT22;5458;51.496;7.334;2023-01-10T00:34:12;8.10;99.90
10812;DHT22;5458;51.496;7.334;2023-01-10T00:36:38;8.10;99.90
10812;DHT22;5458;51.496;7.334;2023-01-10T00:39:04;8.10;99.90
10812;DHT22;5458;51.496;7.334;2023-01-10T00:41:30;8.10;99.90
10812;DHT22;5458;51.496;7.334;2023-01-10T00:44:14;8.10;99.90
10812;DHT22;5458;51.496;7.334;2023-01-10T00:46:39;8.10;99.90
10812;DHT22;5458;51.496;7.334;2023-01-10T00:49:05;8.10;99.90
10812;DHT22;5458;51.496;7.334;2023-01-10T00:51:35;8.10;99.90
10812;DHT22;5458;51.496;7.334;2023-01-10T00:54:01;8.10;99.90
10812;DHT22;5458;51.496;7.334;2023-01-10T00:56:26;8.10;99.90
10812;DHT22;5458;51.496;7.334;2023-01-10T00:58:52;8.00;99.90
10812;DHT22;5458;51.496;7.334;2023-01-10T01:01:17;8.00;99.90
10812;DHT22;5458;51.496;7.334;2023-01-10T01:03:43;8.10;99.90
10812;DHT22;5458;51.496;7.334;2023-01-10T01:06:08;8.00;99.90
10812;DHT22;5458;51.496;7.334;2023-01-10T01:08:34;8.10;99.90
10812;DHT22;5458;51.496;7.334;2023-01-10T01:11:00;8.10;99.90
10812;DHT22;5458;51.496;7.334;2023-01-10T01:13:26;8.10;99.90
10812;DHT22;5458;51.496;7.334;2023-01-10T01:15:51;8.10;99.90
10812;DHT22;5458;51.496;7.334;2023-01-10T01:18:20;8.10;99.90
10812;DHT22;5458;51.496;7.334;2023-01-10T01:20:47;8.10;99.90
10812;DHT22;5458;51.496;7.334;2023-01-10T01:23:15;8.10;99.90
10812;DHT22;5458;51.496;7.334;2023-01-10T01:25:41;8.00;99.90
10812;DHT22;5458;51.496;7.334;2023-01-10T01:28:09;8.00;99.90
10812;DHT22;5458;51.496;7.334;2023-01-10T01:30:36;7.90;99.90
10812;DHT22;5458;51.496;7.334;2023-01-10T01:33:01;7.90;99.90
10812;DHT22;5458;51.496;7.334;2023-01-10T01:35:27;7.80;99.90
10812;DHT22;5458;51.496;7.334;2023-01-10T01:37:53;7.80;99.90
10812;DHT22;5458;51.496;7.334;2023-01-10T01:40:20;7.80;99.90
10812;DHT22;5458;51.496;7.334;2023-01-10T01:42:47;7.70;99.90
10812;DHT22;5458;51.496;7.334;2023-01-10T01:47:42;7.80;99.90
10812;DHT22;5458;51.496;7.334;2023-01-10T01:50:20;7.80;99.90
10812;DHT22;5458;51.496;7.334;2023-01-10T01:52:49;7.80;99.90
10812;DHT22;5458;51.496;7.334;2023-01-10T01:55:16;7.80;99.90
10812;DHT22;5458;51.496;7.334;2023-01-10T01:57:44;7.80;99.90
10812;DHT22;5458;51.496;7.334;2023-01-10T02:00:10;7.80;99.90
10812;DHT22;5458;51.496;7.334;2023-01-10T02:02:43;7.80;99.90
10812;DHT22;5458;51.496;7.334;2023-01-10T02:05:14;7.80;99.90
10812;DHT22;5458;51.496;7.334;2023-01-10T02:07:43;7.90;99.90
10812;DHT22;5458;51.496;7.334;2023-01-10T02:10:21;7.90;99.90
10812;DHT22;5458;51.496;7.334;2023-01-10T02:12:51;7.90;99.90
10812;DHT22;5458;51.496;7.334;2023-01-10T02:15:18;7.90;99.90
10812;DHT22;5458;51.496;7.334;2023-01-10T02:17:48;7.90;99.90
10812;DHT22;5458;51.496;7.334;2023-01-10T02:20:15;7.90;99.90
10812;DHT22;5458;51.496;7.334;2023-01-10T02:31:07;7.90;99.90
10812;DHT22;5458;51.496;7.334;2023-01-10T02:36:55;8.00;99.90
10812;DHT22;5458;51.496;7.334;2023-01-10T02:42:06;7.90;99.90
10812;DHT22;5458;51.496;7.334;2023-01-10T02:47:40;7.80;99.90
10812;DHT22;5458;51.496;7.334;2023-01-10T02:52:50;7.90;99.90
10812;DHT22;5458;51.496;7.334;2023-01-10T02:55:16;7.80;99.90
10812;DHT22;5458;51.496;7.334;2023-01-10T02:57:47;7.80;99.90
10812;DHT22;5458;51.496;7.334;2023-01-10T03:13:26;7.60;99.90
10812;DHT22;5458;51.496;7.334;2023-01-10T03:15:55;7.70;99.90
10812;DHT22;5458;51.496;7.334;2023-01-10T03:18:52;7.60;99.90
10812;DHT22;5458;51.496;7.334;2023-01-10T03:21:23;7.60;99.90
10812;DHT22;5458;51.496;7.334;2023-01-10T03:23:51;7.70;99.90
10812;DHT22;5458;51.496;7.334;2023-01-10T03:26:25;7.70;99.90
10812;DHT22;5458;51.496;7.334;2023-01-10T03:28:55;7.70;99.90
10812;DHT22;5458;51.496;7.334;2023-01-10T03:31:30;7.70;99.90
10812;DHT22;5458;51.496;7.334;2023-01-10T03:33:56;7.70;99.90
10812;DHT22;5458;51.496;7.334;2023-01-10T03:36:33;7.70;99.90
10812;DHT22;5458;51.496;7.334;2023-01-10T03:42:12;7.70;99.90
10812;DHT22;5458;51.496;7.334;2023-01-10T03:49:53;7.60;99.90
10812;DHT22;5458;51.496;7.334;2023-01-10T03:52:19;7.60;99.90
10812;DHT22;5458;51.496;7.334;2023-01-10T03:54:46;7.60;99.90
10812;DHT22;5458;51.496;7.334;2023-01-10T03:57:22;7.60;99.90
10812;DHT22;5458;51.496;7.334;2023-01-10T03:59:52;7.50;99.90
10812;DHT22;5458;51.496;7.334;2023-01-10T04:02:18;7.50;99.90
10812;DHT22;5458;51.496;7.334;2023-01-10T04:04:44;7.60;99.90
10812;DHT22;5458;51.496;7.334;2023-01-10T04:07:10;7.60;99.90
10812;DHT22;5458;51.496;7.334;2023-01-10T04:09:35;7.50;99.90
10812;DHT22;5458;51.496;7.334;2023-01-10T04:12:01;7.40;99.90
10812;DHT22;5458;51.496;7.334;2023-01-10T04:14:27;7.40;99.90
10812;DHT22;5458;51.496;7.334;2023-01-10T04:16:53;7.40;99.90
10812;DHT22;5458;51.496;7.334;2023-01-10T04:19:19;7.40;99.90
10812;DHT22;5458;51.496;7.334;2023-01-10T04:21:45;7.40;99.90
10812;DHT22;5458;51.496;7.334;2023-01-10T04:24:11;7.40;99.90
10812;DHT22;5458;51.496;7.334;2023-01-10T04:26:36;7.40;99.90
10812;DHT22;5458;51.496;7.334;2023-01-10T04:29:02;7.40;99.90
10812;DHT22;5458;51.496;7.334;2023-01-10T04:31:30;7.50;99.90
10812;DHT22;5458;51.496;7.334;2023-01-10T04:33:56;7.40;99.90
10812;DHT22;5458;51.496;7.334;2023-01-10T04:36:21;7.40;99.90
10812;DHT22;5458;51.496;7.334;2023-01-10T04:38:47;7.30;99.90
10812;DHT22;5458;51.496;7.334;2023-01-10T04:41:12;7.30;99.90
10812;DHT22;5458;51.496;7.334;2023-01-10T04:43:38;7.30;99.90
10812;DHT22;5458;51.496;7.334;2023-01-10T04:46:04;7.30;99.90
10812;DHT22;5458;51.496;7.334;2023-01-10T04:48:29;7.30;99.90
10812;DHT22;5458;51.496;7.334;2023-01-10T04:50:55;7.20;99.90
10812;DHT22;5458;51.496;7.334;2023-01-10T04:53:21;7.30;99.90
10812;DHT22;5458;51.496;7.334;2023-01-10T04:55:47;7.20;99.90
10812;DHT22;5458;51.496;7.334;2023-01-10T04:58:13;7.20;99.90
10812;DHT22;5458;51.496;7.334;2023-01-10T05:00:39;7.20;99.90
10812;DHT22;5458;51.496;7.334;2023-01-10T05:03:04;7.20;99.90
10812;DHT22;5458;51.496;7.334;2023-01-10T05:05:30;7.20;99.90
10812;DHT22;5458;51.496;7.334;2023-01-10T05:07:56;7.20;99.90
10812;DHT22;5458;51.496;7.334;2023-01-10T05:10:22;7.20;99.90
10812;DHT22;5458;51.496;7.334;2023-01-10T05:12:47;7.20;99.90
10812;DHT22;5458;51.496;7.334;2023-01-10T05:15:13;7.30;99.90
10812;DHT22;5458;51.496;7.334;2023-01-10T05:17:39;7.40;99.90
10812;DHT22;5458;51.496;7.334;2023-01-10T05:20:05;7.30;99.90
10812;DHT22;5458;51.496;7.334;2023-01-10T05:22:32;7.40;99.90
10812;DHT22;5458;51.496;7.334;2023-01-10T05:24:58;7.40;99.90
10812;DHT22;5458;51.496;7.334;2023-01-10T05:27:24;7.40;99.90
10812;DHT22;5458;51.496;7.334;2023-01-10T05:29:49;7.30;99.90
10812;DHT22;5458;51.496;7.334;2023-01-10T05:32:15;7.30;99.90
10812;DHT22;5458;51.496;7.334;2023-01-10T05:34:41;7.30;99.90
10812;DHT22;5458;51.496;7.334;2023-01-10T05:37:07;7.30;99.90
10812;DHT22;5458;51.496;7.334;2023-01-10T05:39:32;7.20;99.90
10812;DHT22;5458;51.496;7.334;2023-01-10T05:41:58;7.20;99.90
10812;DHT22;5458;51.496;7.334;2023-01-10T05:44:24;7.20;99.90
10812;DHT22;5458;51.496;7.334;2023-01-10T05:46:50;7.20;99.90
10812;DHT22;5458;51.496;7.334;2023-01-10T05:49:15;7.30;99.90
10812;DHT22;5458;51.496;7.334;2023-01-10T05:51:41;7.20;99.90
10812;DHT22;5458;51.496;7.334;2023-01-10T05:54:07;7.30;99.90
10812;DHT22;5458;51.496;7.334;2023-01-10T05:56:33;7.30;99.90
10812;DHT22;5458;51.496;7.334;2023-01-10T05:58:58;7.20;99.90
10812;DHT22;5458;51.496;7.334;2023-01-10T06:01:24;7.30;99.90
10812;DHT22;5458;51.496;7.334;2023-01-10T06:03:49;7.30;99.90
10812;DHT22;5458;51.496;7.334;2023-01-10T06:06:15;7.30;99.90
10812;DHT22;5458;51.496;7.334;2023-01-10T06:08:41;7.30;99.90
10812;DHT22;5458;51.496;7.334;2023-01-10T06:11:07;7.20;99.90
10812;DHT22;5458;51.496;7.334;2023-01-10T06:13:32;7.30;99.90
10812;DHT22;5458;51.496;7.334;2023-01-10T06:15:58;7.30;99.90
10812;DHT22;5458;51.496;7.334;2023-01-10T06:18:24;7.30;99.90
10812;DHT22;5458;51.496;7.334;2023-01-10T06:20:49;7.20;99.90
10812;DHT22;5458;51.496;7.334;2023-01-10T06:23:15;7.30;99.90
10812;DHT22;5458;51.496;7.334;2023-01-10T06:25:41;7.20;99.90
10812;DHT22;5458;51.496;7.334;2023-01-10T06:28:08;7.20;99.90
10812;DHT22;5458;51.496;7.334;2023-01-10T06:30:34;7.10;99.90
10812;DHT22;5458;51.496;7.334;2023-01-10T06:33:01;7.10;99.90
10812;DHT22;5458;51.496;7.334;2023-01-10T06:35:28;7.10;99.90
10812;DHT22;5458;51.496;7.334;2023-01-10T06:37:53;7.10;99.90
10812;DHT22;5458;51.496;7.334;2023-01-10T06:40:19;7.10;99.90
10812;DHT22;5458;51.496;7.334;2023-01-10T06:42:44;7.20;99.90
10812;DHT22;5458;51.496;7.334;2023-01-10T06:45:10;7.30;99.90
10812;DHT22;5458;51.496;7.334;2023-01-10T06:47:36;7.30;99.90
10812;DHT22;5458;51.496;7.334;2023-01-10T06:50:02;7.40;99.90
10812;DHT22;5458;51.496;7.334;2023-01-10T06:52:28;7.40;99.90
10812;DHT22;5458;51.496;7.334;2023-01-10T06:54:54;7.40;99.90
10812;DHT22;5458;51.496;7.334;2023-01-10T06:57:20;7.40;99.90
10812;DHT22;5458;51.496;7.334;2023-01-10T06:59:45;7.40;99.90
10812;DHT22;5458;51.496;7.334;2023-01-10T07:02:11;7.40;99.90
10812;DHT22;5458;51.496;7.334;2023-01-10T07:04:37;7.30;99.90
10812;DHT22;5458;51.496;7.334;2023-01-10T07:07:02;7.30;99.90
10812;DHT22;5458;51.496;7.334;2023-01-10T07:09:28;7.30;99.90
10812;DHT22;5458;51.496;7.334;2023-01-10T07:11:54;7.30;99.90
10812;DHT22;5458;51.496;7.334;2023-01-10T07:14:19;7.30;99.90
10812;DHT22;5458;51.496;7.334;2023-01-10T07:16:45;7.40;99.90
10812;DHT22;5458;51.496;7.334;2023-01-10T07:19:11;7.30;99.90
10812;DHT22;5458;51.496;7.334;2023-01-10T07:21:38;7.20;99.90
10812;DHT22;5458;51.496;7.334;2023-01-10T07:24:04;7.20;99.90
10812;DHT22;5458;51.496;7.334;2023-01-10T07:26:30;7.20;99.90
10812;DHT22;5458;51.496;7.334;2023-01-10T07:28:55;7.20;99.90
10812;DHT22;5458;51.496;7.334;2023-01-10T07:31:21;7.10;99.90
10812;DHT22;5458;51.496;7.334;2023-01-10T07:33:49;7.10;99.90
10812;DHT22;5458;51.496;7.334;2023-01-10T07:36:15;7.20;99.90
10812;DHT22;5458;51.496;7.334;2023-01-10T07:38:41;7.20;99.90
10812;DHT22;5458;51.496;7.334;2023-01-10T07:41:06;7.30;99.90
10812;DHT22;5458;51.496;7.334;2023-01-10T07:43:33;7.30;99.90
10812;DHT22;5458;51.496;7.334;2023-01-10T07:46:03;7.30;99.90
10812;DHT22;5458;51.496;7.334;2023-01-10T07:48:29;7.30;99.90
10812;DHT22;5458;51.496;7.334;2023-01-10T07:50:59;7.30;99.90
10812;DHT22;5458;51.496;7.334;2023-01-10T07:53:26;7.30;99.90
10812;DHT22;5458;51.496;7.334;2023-01-10T07:55:52;7.40;99.90
10812;DHT22;5458;51.496;7.334;2023-01-10T07:58:18;7.40;99.90
10812;DHT22;5458;51.496;7.334;2023-01-10T08:00:45;7.30;99.90
10812;DHT22;5458;51.496;7.334;2023-01-10T08:03:11;7.30;99.90
10812;DHT22;5458;51.496;7.334;2023-01-10T08:05:37;7.40;99.90
10812;DHT22;5458;51.496;7.334;2023-01-10T08:08:06;7.40;99.90
10812;DHT22;5458;51.496;7.334;2023-01-10T08:10:36;7.40;99.90
10812;DHT22;5458;51.496;7.334;2023-01-10T08:13:03;7.50;99.90
10812;DHT22;5458;51.496;7.334;2023-01-10T08:15:28;7.40;99.90
10812;DHT22;5458;51.496;7.334;2023-01-10T08:17:54;7.50;99.90
10812;DHT22;5458;51.496;7.334;2023-01-10T08:20:20;7.50;99.90
10812;DHT22;5458;51.496;7.334;2023-01-10T08:22:45;7.50;99.90
10812;DHT22;5458;51.496;7.334;2023-01-10T08:25:11;7.50;99.90
10812;DHT22;5458;51.496;7.334;2023-01-10T08:27:37;7.50;99.90
10812;DHT22;5458;51.496;7.334;2023-01-10T08:30:06;7.50;99.90
10812;DHT22;5458;51.496;7.334;2023-01-10T08:32:31;7.60;99.90
10812;DHT22;5458;51.496;7.334;2023-01-10T08:34:57;7.60;99.90
10812;DHT22;5458;51.496;7.334;2023-01-10T08:37:23;7.70;99.90
10812;DHT22;5458;51.496;7.334;2023-01-10T08:39:49;7.70;99.90
10812;DHT22;5458;51.496;7.334;2023-01-10T08:42:14;7.70;99.90
10812;DHT22;5458;51.496;7.334;2023-01-10T08:44:43;7.70;99.90
10812;DHT22;5458;51.496;7.334;2023-01-10T08:47:09;7.80;99.90
10812;DHT22;5458;51.496;7.334;2023-01-10T08:49:35;7.80;99.90
10812;DHT22;5458;51.496;7.334;2023-01-10T08:52:01;7.80;99.90
10812;DHT22;5458;51.496;7.334;2023-01-10T08:54:29;7.70;99.90
10812;DHT22;5458;51.496;7.334;2023-01-10T08:56:55;7.70;99.90
10812;DHT22;5458;51.496;7.334;2023-01-10T08:59:20;7.70;99.90
10812;DHT22;5458;51.496;7.334;2023-01-10T09:01:46;7.70;99.90
10812;DHT22;5458;51.496;7.334;2023-01-10T09:04:11;7.70;99.90
10812;DHT22;5458;51.496;7.334;2023-01-10T09:06:37;7.70;99.90
10812;DHT22;5458;51.496;7.334;2023-01-10T09:09:03;7.70;99.90
10812;DHT22;5458;51.496;7.334;2023-01-10T09:11:29;7.70;99.90
10812;DHT22;5458;51.496;7.334;2023-01-10T09:13:54;7.80;99.90
10812;DHT22;5458;51.496;7.334;2023-01-10T09:16:20;7.90;99.90
10812;DHT22;5458;51.496;7.334;2023-01-10T09:18:46;8.00;99.90
10812;DHT22;5458;51.496;7.334;2023-01-10T09:21:11;8.00;99.90
10812;DHT22;5458;51.496;7.334;2023-01-10T09:23:37;7.90;99.90
10812;DHT22;5458;51.496;7.334;2023-01-10T09:26:04;7.90;99.90
10812;DHT22;5458;51.496;7.334;2023-01-10T09:28:30;7.80;99.90
10812;DHT22;5458;51.496;7.334;2023-01-10T09:30:56;7.70;99.90
10812;DHT22;5458;51.496;7.334;2023-01-10T09:33:22;7.70;99.90
10812;DHT22;5458;51.496;7.334;2023-01-10T09:35:47;7.70;99.90
10812;DHT22;5458;51.496;7.334;2023-01-10T09:38:15;7.80;99.90
10812;DHT22;5458;51.496;7.334;2023-01-10T09:51:49;7.90;99.90
10812;DHT22;5458;51.496;7.334;2023-01-10T09:54:28;7.90;99.90
10812;DHT22;5458;51.496;7.334;2023-01-10T09:56:55;8.00;99.90
10812;DHT22;5458;51.496;7.334;2023-01-10T09:59:31;8.00;99.90
10812;DHT22;5458;51.496;7.334;2023-01-10T10:02:06;8.20;99.90
10812;DHT22;5458;51.496;7.334;2023-01-10T10:04:39;8.40;99.90
10812;DHT22;5458;51.496;7.334;2023-01-10T10:07:11;8.40;99.90
10812;DHT22;5458;51.496;7.334;2023-01-10T10:09:38;8.60;99.90
10812;DHT22;5458;51.496;7.334;2023-01-10T10:14:56;8.90;99.90
10812;DHT22;5458;51.496;7.334;2023-01-10T10:20:36;8.90;99.90
10812;DHT22;5458;51.496;7.334;2023-01-10T10:37:26;9.60;99.90
10812;DHT22;5458;51.496;7.334;2023-01-10T10:40:15;9.60;99.90
10812;DHT22;5458;51.496;7.334;2023-01-10T10:42:44;9.60;99.90
10812;DHT22;5458;51.496;7.334;2023-01-10T10:47:50;9.60;99.90
10812;DHT22;5458;51.496;7.334;2023-01-10T10:50:26;9.60;99.90
10812;DHT22;5458;51.496;7.334;2023-01-10T10:52:53;9.70;99.90
10812;DHT22;5458;51.496;7.334;2023-01-10T10:55:27;9.70;99.90
10812;DHT22;5458;51.496;7.334;2023-01-10T10:57:53;9.70;99.90
10812;DHT22;5458;51.496;7.334;2023-01-10T11:00:19;9.60;99.90
10812;DHT22;5458;51.496;7.334;2023-01-10T11:02:53;9.60;99.90
10812;DHT22;5458;51.496;7.334;2023-01-10T11:05:31;9.50;99.90
10812;DHT22;5458;51.496;7.334;2023-01-10T11:08:03;9.60;99.90
10812;DHT22;5458;51.496;7.334;2023-01-10T11:10:39;9.50;99.90
10812;DHT22;5458;51.496;7.334;2023-01-10T11:15:48;9.40;99.90
10812;DHT22;5458;51.496;7.334;2023-01-10T11:18:17;9.40;99.90
10812;DHT22;5458;51.496;7.334;2023-01-10T11:20:57;9.30;99.90
10812;DHT22;5458;51.496;7.334;2023-01-10T11:26:30;9.20;99.90
10812;DHT22;5458;51.496;7.334;2023-01-10T11:29:18;9.20;99.90
10812;DHT22;5458;51.496;7.334;2023-01-10T11:31:46;9.20;99.90
10812;DHT22;5458;51.496;7.334;2023-01-10T11:34:34;9.20;99.90
10812;DHT22;5458;51.496;7.334;2023-01-10T11:37:11;9.20;99.90
10812;DHT22;5458;51.496;7.334;2023-01-10T11:39:42;9.20;99.90
10812;DHT22;5458;51.496;7.334;2023-01-10T11:44:49;9.20;99.90
10812;DHT22;5458;51.496;7.334;2023-01-10T11:47:14;9.20;99.90
10812;DHT22;5458;51.496;7.334;2023-01-10T11:49:45;9.20;99.90
10812;DHT22;5458;51.496;7.334;2023-01-10T11:52:32;9.10;99.90
10812;DHT22;5458;51.496;7.334;2023-01-10T11:54:58;9.10;99.90
10812;DHT22;5458;51.496;7.334;2023-01-10T11:57:30;9.10;99.90
10812;DHT22;5458;51.496;7.334;2023-01-10T12:00:03;9.20;99.90
10812;DHT22;5458;51.496;7.334;2023-01-10T12:02:33;9.10;99.90
10812;DHT22;5458;51.496;7.334;2023-01-10T12:05:03;9.10;99.90
10812;DHT22;5458;51.496;7.334;2023-01-10T12:07:30;9.20;99.90
10812;DHT22;5458;51.496;7.334;2023-01-10T12:10:20;9.10;99.90
10812;DHT22;5458;51.496;7.334;2023-01-10T12:12:56;9.10;99.90
10812;DHT22;5458;51.496;7.334;2023-01-10T12:15:26;9.10;99.90
10812;DHT22;5458;51.496;7.334;2023-01-10T12:17:55;9.10;99.90
10812;DHT22;5458;51.496;7.334;2023-01-10T12:20:22;9.20;99.90
10812;DHT22;5458;51.496;7.334;2023-01-10T12:22:54;9.20;99.90
10812;DHT22;5458;51.496;7.334;2023-01-10T12:27:59;9.20;99.90
10812;DHT22;5458;51.496;7.334;2023-01-10T12:32:59;9.30;99.90
10812;DHT22;5458;51.496;7.334;2023-01-10T12:41:10;9.20;99.90
10812;DHT22;5458;51.496;7.334;2023-01-10T12:43:58;9.20;99.90
10812;DHT22;5458;51.496;7.334;2023-01-10T12:46:46;9.20;99.90
10812;DHT22;5458;51.496;7.334;2023-01-10T12:49:22;9.20;99.90
10812;DHT22;5458;51.496;7.334;2023-01-10T12:51:50;9.10;99.90
10812;DHT22;5458;51.496;7.334;2023-01-10T12:54:23;9.10;99.90
10812;DHT22;5458;51.496;7.334;2023-01-10T12:56:50;9.20;99.90
10812;DHT22;5458;51.496;7.334;2023-01-10T12:59:21;9.20;99.90
10812;DHT22;5458;51.496;7.334;2023-01-10T13:01:55;9.10;99.90
10812;DHT22;5458;51.496;7.334;2023-01-10T13:04:22;9.10;99.90
10812;DHT22;5458;51.496;7.334;2023-01-10T13:06:49;9.10;99.90
10812;DHT22;5458;51.496;7.334;2023-01-10T13:09:18;9.10;99.90
10812;DHT22;5458;51.496;7.334;2023-01-10T13:14:55;9.20;99.90
10812;DHT22;5458;51.496;7.334;2023-01-10T13:22:43;9.20;99.90
10812;DHT22;5458;51.496;7.334;2023-01-10T13:25:30;9.20;99.90
10812;DHT22;5458;51.496;7.334;2023-01-10T13:28:15;9.20;99.90
10812;DHT22;5458;51.496;7.334;2023-01-10T13:30:42;9.20;99.90
10812;DHT22;5458;51.496;7.334;2023-01-10T13:33:22;9.10;99.90
10812;DHT22;5458;51.496;7.334;2023-01-10T13:35:51;9.10;99.90
10812;DHT22;5458;51.496;7.334;2023-01-10T13:38:35;9.10;99.90
10812;DHT22;5458;51.496;7.334;2023-01-10T13:41:09;9.10;99.90
10812;DHT22;5458;51.496;7.334;2023-01-10T13:44:02;9.20;99.90
10812;DHT22;5458;51.496;7.334;2023-01-10T13:51:27;9.10;99.90
10812;DHT22;5458;51.496;7.334;2023-01-10T13:54:24;9.10;99.90
10812;DHT22;5458;51.496;7.334;2023-01-10T13:56:49;9.10;99.90
10812;DHT22;5458;51.496;7.334;2023-01-10T14:02:21;9.10;99.90
10812;DHT22;5458;51.496;7.334;2023-01-10T14:05:02;9.00;99.90
10812;DHT22;5458;51.496;7.334;2023-01-10T14:10:27;9.00;99.90
10812;DHT22;5458;51.496;7.334;2023-01-10T14:13:02;9.00;99.90
10812;DHT22;5458;51.496;7.334;2023-01-10T14:15:42;8.90;99.90
10812;DHT22;5458;51.496;7.334;2023-01-10T14:18:24;8.90;99.90
10812;DHT22;5458;51.496;7.334;2023-01-10T14:21:08;8.80;99.90
10812;DHT22;5458;51.496;7.334;2023-01-10T14:23:48;8.80;99.90
10812;DHT22;5458;51.496;7.334;2023-01-10T14:28:48;8.90;99.90
10812;DHT22;5458;51.496;7.334;2023-01-10T14:31:24;8.80;99.90
10812;DHT22;5458;51.496;7.334;2023-01-10T14:33:50;8.80;99.90
10812;DHT22;5458;51.496;7.334;2023-01-10T14:36:27;8.80;99.90
10812;DHT22;5458;51.496;7.334;2023-01-10T14:38:59;8.80;99.90
10812;DHT22;5458;51.496;7.334;2023-01-10T14:41:42;8.70;99.90
10812;DHT22;5458;51.496;7.334;2023-01-10T14:44:26;8.70;99.90
10812;DHT22;5458;51.496;7.334;2023-01-10T14:46:55;8.70;99.90
10812;DHT22;5458;51.496;7.334;2023-01-10T14:51:52;8.70;99.90
10812;DHT22;5458;51.496;7.334;2023-01-10T14:54:25;8.60;99.90
10812;DHT22;5458;51.496;7.334;2023-01-10T14:56:51;8.60;99.90
10812;DHT22;5458;51.496;7.334;2023-01-10T14:59:30;8.50;99.90
10812;DHT22;5458;51.496;7.334;2023-01-10T15:02:08;8.50;99.90
10812;DHT22;5458;51.496;7.334;2023-01-10T15:04:35;8.50;99.90
10812;DHT22;5458;51.496;7.334;2023-01-10T15:07:09;8.50;99.90
10812;DHT22;5458;51.496;7.334;2023-01-10T15:09:35;8.40;99.90
10812;DHT22;5458;51.496;7.334;2023-01-10T15:12:03;8.40;99.90
10812;DHT22;5458;51.496;7.334;2023-01-10T15:14:31;8.40;99.90
10812;DHT22;5458;51.496;7.334;2023-01-10T15:16:59;8.40;99.90
10812;DHT22;5458;51.496;7.334;2023-01-10T15:19:33;8.40;99.90
10812;DHT22;5458;51.496;7.334;2023-01-10T15:22:00;8.40;99.90
10812;DHT22;5458;51.496;7.334;2023-01-10T15:24:34;8.40;99.90
10812;DHT22;5458;51.496;7.334;2023-01-10T15:27:05;8.40;99.90
10812;DHT22;5458;51.496;7.334;2023-01-10T15:29:33;8.40;99.90
10812;DHT22;5458;51.496;7.334;2023-01-10T15:32:09;8.40;99.90
10812;DHT22;5458;51.496;7.334;2023-01-10T15:34:36;8.40;99.90
10812;DHT22;5458;51.496;7.334;2023-01-10T15:37:03;8.40;99.90
10812;DHT22;5458;51.496;7.334;2023-01-10T15:39:35;8.40;99.90
10812;DHT22;5458;51.496;7.334;2023-01-10T15:42:10;8.30;99.90
10812;DHT22;5458;51.496;7.334;2023-01-10T15:47:02;8.30;99.90
10812;DHT22;5458;51.496;7.334;2023-01-10T15:49:28;8.30;99.90
10812;DHT22;5458;51.496;7.334;2023-01-10T15:51:55;8.20;99.90
10812;DHT22;5458;51.496;7.334;2023-01-10T15:57:13;8.20;99.90
10812;DHT22;5458;51.496;7.334;2023-01-10T15:59:47;8.20;99.90
10812;DHT22;5458;51.496;7.334;2023-01-10T16:02:23;8.20;99.90
10812;DHT22;5458;51.496;7.334;2023-01-10T16:04:53;8.20;99.90
10812;DHT22;5458;51.496;7.334;2023-01-10T16:07:32;8.10;99.90
10812;DHT22;5458;51.496;7.334;2023-01-10T16:10:03;8.20;99.90
10812;DHT22;5458;51.496;7.334;2023-01-10T16:12:39;8.20;99.90
10812;DHT22;5458;51.496;7.334;2023-01-10T16:15:29;8.20;99.90
10812;DHT22;5458;51.496;7.334;2023-01-10T16:17:55;8.10;99.90
10812;DHT22;5458;51.496;7.334;2023-01-10T16:20:37;8.10;99.90
10812;DHT22;5458;51.496;7.334;2023-01-10T16:23:05;8.20;99.90
10812;DHT22;5458;51.496;7.334;2023-01-10T16:25:38;8.10;99.90
10812;DHT22;5458;51.496;7.334;2023-01-10T16:28:10;8.10;99.90
10812;DHT22;5458;51.496;7.334;2023-01-10T16:30:36;8.20;99.90
10812;DHT22;5458;51.496;7.334;2023-01-10T16:33:13;8.20;99.90
10812;DHT22;5458;51.496;7.334;2023-01-10T16:35:41;8.20;99.90
10812;DHT22;5458;51.496;7.334;2023-01-10T16:38:08;8.20;99.90
10812;DHT22;5458;51.496;7.334;2023-01-10T16:40:43;8.10;99.90
10812;DHT22;5458;51.496;7.334;2023-01-10T16:43:10;8.10;99.90
10812;DHT22;5458;51.496;7.334;2023-01-10T16:45:49;8.20;99.90
10812;DHT22;5458;51.496;7.334;2023-01-10T16:48:16;8.10;99.90
10812;DHT22;5458;51.496;7.334;2023-01-10T16:50:43;8.10;99.90
10812;DHT22;5458;51.496;7.334;2023-01-10T16:53:13;8.10;99.90
10812;DHT22;5458;51.496;7.334;2023-01-10T16:55:45;8.10;99.90
10812;DHT22;5458;51.496;7.334;2023-01-10T16:58:12;8.10;99.90
10812;DHT22;5458;51.496;7.334;2023-01-10T17:00:39;8.00;99.90
10812;DHT22;5458;51.496;7.334;2023-01-10T17:03:07;8.00;99.90
10812;DHT22;5458;51.496;7.334;2023-01-10T17:05:36;7.90;99.90
10812;DHT22;5458;51.496;7.334;2023-01-10T17:08:02;8.00;99.90
10812;DHT22;5458;51.496;7.334;2023-01-10T17:10:31;7.90;99.90
10812;DHT22;5458;51.496;7.334;2023-01-10T17:12:57;7.90;99.90
10812;DHT22;5458;51.496;7.334;2023-01-10T17:15:22;7.90;99.90
10812;DHT22;5458;51.496;7.334;2023-01-10T17:17:48;7.80;99.90
10812;DHT22;5458;51.496;7.334;2023-01-10T17:20:14;7.70;99.90
10812;DHT22;5458;51.496;7.334;2023-01-10T17:22:41;7.60;99.90
10812;DHT22;5458;51.496;7.334;2023-01-10T17:25:15;7.60;99.90
10812;DHT22;5458;51.496;7.334;2023-01-10T17:27:41;7.50;99.90
10812;DHT22;5458;51.496;7.334;2023-01-10T17:30:08;7.60;99.90
10812;DHT22;5458;51.496;7.334;2023-01-10T17:32:34;7.60;99.90
10812;DHT22;5458;51.496;7.334;2023-01-10T17:35:00;7.50;99.90
10812;DHT22;5458;51.496;7.334;2023-01-10T17:37:25;7.50;99.90
10812;DHT22;5458;51.496;7.334;2023-01-10T17:39:51;7.50;99.90
10812;DHT22;5458;51.496;7.334;2023-01-10T17:42:16;7.50;99.90
10812;DHT22;5458;51.496;7.334;2023-01-10T17:44:42;7.40;99.90
10812;DHT22;5458;51.496;7.334;2023-01-10T17:47:08;7.40;99.90
10812;DHT22;5458;51.496;7.334;2023-01-10T17:49:35;7.30;99.90
10812;DHT22;5458;51.496;7.334;2023-01-10T17:52:01;7.30;99.90
10812;DHT22;5458;51.496;7.334;2023-01-10T17:54:27;7.30;99.90
10812;DHT22;5458;51.496;7.334;2023-01-10T17:56:53;7.30;99.90
10812;DHT22;5458;51.496;7.334;2023-01-10T17:59:18;7.30;99.90
10812;DHT22;5458;51.496;7.334;2023-01-10T18:01:44;7.20;99.90
10812;DHT22;5458;51.496;7.334;2023-01-10T18:04:10;7.30;99.90
10812;DHT22;5458;51.496;7.334;2023-01-10T18:06:35;7.20;99.90
10812;DHT22;5458;51.496;7.334;2023-01-10T18:09:01;7.30;99.90
10812;DHT22;5458;51.496;7.334;2023-01-10T18:11:27;7.40;99.90
10812;DHT22;5458;51.496;7.334;2023-01-10T18:13:54;7.40;99.90
10812;DHT22;5458;51.496;7.334;2023-01-10T18:16:20;7.40;99.90
10812;DHT22;5458;51.496;7.334;2023-01-10T18:18:46;7.30;99.90
10812;DHT22;5458;51.496;7.334;2023-01-10T18:21:13;7.40;99.90